createdAt,value
2024-04-05T00:00:19.836Z,4.90
2024-04-05T00:03:11.024Z,5.10
2024-04-05T00:05:43.062Z,3.40
2024-04-05T00:08:14.145Z,4.10
2024-04-05T00:10:45.492Z,3.70
2024-04-05T00:13:16.711Z,6.00
2024-04-05T00:15:47.722Z,3.30
2024-04-05T00:18:18.643Z,5.30
2024-04-05T00:28:18.742Z,3.50
2024-04-05T00:30:49.695Z,2.70
2024-04-05T00:35:54.774Z,5.10
2024-04-05T00:38:27.338Z,3.90
2024-04-05T00:40:58.600Z,4.70
2024-04-05T00:43:31.911Z,7.80
2024-04-05T00:46:07.694Z,3.20
2024-04-05T00:48:39.003Z,7.50
2024-04-05T00:51:11.066Z,5.50
2024-04-05T00:53:42.290Z,6.20
2024-04-05T00:56:14.658Z,4.50
2024-04-05T00:58:45.898Z,2.70
2024-04-05T01:01:17.196Z,5.80
2024-04-05T01:03:48.307Z,3.10
2024-04-05T01:06:20.000Z,4.70
2024-04-05T01:08:51.466Z,3.40
2024-04-05T01:11:23.150Z,4.70
2024-04-05T01:13:54.403Z,5.10
2024-04-05T01:16:25.720Z,2.80
2024-04-05T01:18:59.633Z,4.00
2024-04-05T01:21:30.848Z,6.10
2024-04-05T01:24:03.310Z,6.90
2024-04-05T01:26:34.682Z,4.60
2024-04-05T01:29:05.702Z,9.50
2024-04-05T01:31:36.870Z,4.80
2024-04-05T01:34:08.350Z,4.80
2024-04-05T01:36:40.068Z,9.60
2024-04-05T01:39:11.287Z,9.20
2024-04-05T01:41:42.735Z,6.10
2024-04-05T01:44:14.239Z,7.60
2024-04-05T01:46:45.474Z,7.20
2024-04-05T01:49:16.699Z,5.90
2024-04-05T01:51:47.958Z,6.40
2024-04-05T01:54:19.032Z,7.90
2024-04-05T01:56:50.404Z,5.00
2024-04-05T01:59:21.492Z,6.70
2024-04-05T02:01:55.943Z,8.90
2024-04-05T02:04:27.509Z,8.10
2024-04-05T02:06:59.002Z,9.40
2024-04-05T02:09:30.271Z,5.90
2024-04-05T02:12:02.016Z,9.50
2024-04-05T02:14:35.082Z,9.00
2024-04-05T02:17:06.714Z,6.10
2024-04-05T02:19:38.308Z,6.80
2024-04-05T02:22:09.992Z,6.80
2024-04-05T02:24:41.246Z,6.10
2024-04-05T02:27:12.328Z,5.70
2024-04-05T02:29:43.365Z,7.40
2024-04-05T02:32:14.722Z,5.50
2024-04-05T02:34:46.140Z,4.90
2024-04-05T02:37:17.917Z,7.30
2024-04-05T02:39:49.473Z,7.00
2024-04-05T02:42:20.787Z,9.30
2024-04-05T02:44:52.337Z,6.80
2024-04-05T02:47:24.296Z,4.60
2024-04-05T02:49:57.673Z,6.70
2024-04-05T02:52:28.841Z,6.40
2024-04-05T02:54:59.825Z,5.90
2024-04-05T02:57:31.247Z,5.90
2024-04-05T03:00:02.405Z,7.00
2024-04-05T03:02:33.972Z,5.20
2024-04-05T03:05:05.729Z,8.80
2024-04-05T03:07:37.258Z,8.70
2024-04-05T03:10:09.855Z,7.30
2024-04-05T03:12:41.125Z,6.00
2024-04-05T03:15:12.341Z,9.10
2024-04-05T03:17:44.546Z,9.40
2024-04-05T03:20:16.128Z,6.90
2024-04-05T03:22:47.751Z,7.00
2024-04-05T03:25:19.238Z,6.10
2024-04-05T03:27:52.346Z,5.10
2024-04-05T03:30:23.527Z,5.70
2024-04-05T03:32:54.951Z,7.10
2024-04-05T03:35:26.499Z,5.90
2024-04-05T03:37:58.250Z,5.30
2024-04-05T03:40:29.926Z,9.10
2024-04-05T03:43:01.222Z,7.90
2024-04-05T03:45:32.727Z,11.80
2024-04-05T03:48:04.249Z,6.70
2024-04-05T03:50:35.444Z,6.80
2024-04-05T03:53:07.571Z,7.40
2024-04-05T03:55:38.784Z,5.20
2024-04-05T03:58:10.634Z,5.90
2024-04-05T04:00:41.926Z,8.30
2024-04-05T04:03:13.317Z,7.00
2024-04-05T04:05:44.495Z,7.00
2024-04-05T04:08:16.722Z,5.00
2024-04-05T04:10:48.950Z,5.30
2024-04-05T04:13:20.169Z,7.70
2024-04-05T04:15:51.501Z,8.50
2024-04-05T04:18:23.012Z,8.60
2024-04-05T04:20:55.311Z,10.80
2024-04-05T04:23:28.833Z,7.20
2024-04-05T04:26:02.094Z,5.00
2024-04-05T04:28:34.327Z,8.90
2024-04-05T04:31:21.466Z,8.10
2024-04-05T04:33:53.480Z,8.90
2024-04-05T04:36:25.789Z,7.90
2024-04-05T04:38:57.131Z,6.10
2024-04-05T04:41:28.600Z,8.50
2024-04-05T04:44:00.066Z,10.30
2024-04-05T04:46:31.393Z,8.20
2024-04-05T04:49:03.004Z,6.90
2024-04-05T04:51:34.167Z,6.40
2024-04-05T04:54:05.694Z,6.90
2024-04-05T04:56:36.852Z,8.10
2024-04-05T04:59:09.916Z,8.30
2024-04-05T05:01:41.581Z,8.00
2024-04-05T05:04:13.171Z,7.20
2024-04-05T05:06:44.520Z,11.50
2024-04-05T05:09:16.871Z,6.20
2024-04-05T05:11:48.868Z,8.90
2024-04-05T05:14:20.089Z,4.20
2024-04-05T05:16:51.309Z,9.50
2024-04-05T05:19:23.723Z,10.40
2024-04-05T05:21:55.017Z,9.70
2024-04-05T05:24:26.070Z,5.10
2024-04-05T05:26:57.229Z,9.80
2024-04-05T05:29:28.883Z,7.20
2024-04-05T05:31:59.924Z,6.90
2024-04-05T05:34:31.088Z,5.80
2024-04-05T05:37:02.256Z,5.10
2024-04-05T05:39:34.165Z,10.10
2024-04-05T05:42:05.816Z,10.30
2024-04-05T05:44:36.799Z,6.30
2024-04-05T05:47:08.984Z,3.80
2024-04-05T05:49:40.509Z,7.50
2024-04-05T05:52:11.738Z,7.50
2024-04-05T05:54:43.072Z,8.10
2024-04-05T05:57:14.262Z,10.40
2024-04-05T05:59:45.561Z,8.90
2024-04-05T06:02:17.366Z,8.80
2024-04-05T06:04:49.010Z,11.30
2024-04-05T06:07:20.609Z,7.90
2024-04-05T06:09:54.822Z,5.60
2024-04-05T06:12:27.409Z,5.80
2024-04-05T06:15:00.256Z,8.70
2024-04-05T06:17:35.237Z,8.00
2024-04-05T06:20:11.221Z,8.60
2024-04-05T06:22:42.896Z,7.50
2024-04-05T06:25:15.142Z,7.60
2024-04-05T06:27:46.861Z,11.00
2024-04-05T06:30:18.374Z,9.30
2024-04-05T06:32:49.542Z,9.60
2024-04-05T06:35:21.109Z,10.60
2024-04-05T06:37:52.329Z,5.40
2024-04-05T06:40:24.103Z,5.70
2024-04-05T06:42:55.513Z,8.70
2024-04-05T06:45:26.884Z,6.80
2024-04-05T06:47:58.118Z,6.10
2024-04-05T06:50:33.746Z,8.70
2024-04-05T06:53:05.145Z,6.40
2024-04-05T06:55:36.659Z,13.10
2024-04-05T06:58:08.146Z,8.50
2024-04-05T07:00:39.619Z,8.30
2024-04-05T07:03:11.108Z,8.50
2024-04-05T07:05:43.036Z,6.20
2024-04-05T07:08:14.479Z,9.80
2024-04-05T07:10:50.406Z,9.00
2024-04-05T07:13:22.183Z,7.50
2024-04-05T07:15:53.357Z,8.70
2024-04-05T07:18:25.686Z,9.60
2024-04-05T07:20:57.134Z,8.40
2024-04-05T07:23:28.510Z,6.70
2024-04-05T07:25:59.731Z,6.50
2024-04-05T07:28:31.148Z,8.70
2024-04-05T07:31:04.738Z,7.70
2024-04-05T07:33:36.086Z,8.20
2024-04-05T07:36:09.057Z,5.60
2024-04-05T07:38:40.332Z,4.60
2024-04-05T07:41:11.745Z,8.20
2024-04-05T07:43:43.366Z,5.00
2024-04-05T07:46:15.075Z,7.30
2024-04-05T07:48:46.709Z,7.60
2024-04-05T07:51:18.652Z,5.90
2024-04-05T07:53:49.716Z,5.90
2024-04-05T07:56:20.937Z,8.20
2024-04-05T07:58:52.241Z,5.80
2024-04-05T08:01:24.616Z,7.40
2024-04-05T08:03:55.676Z,8.50
2024-04-05T08:06:26.766Z,6.60
2024-04-05T08:08:57.922Z,7.50
2024-04-05T08:11:29.340Z,8.90
2024-04-05T08:14:00.288Z,5.90
2024-04-05T08:16:31.469Z,4.90
2024-04-05T08:19:03.968Z,4.70
2024-04-05T08:21:35.310Z,9.00
2024-04-05T08:24:08.238Z,5.30
2024-04-05T08:26:39.583Z,7.50
2024-04-05T08:29:11.332Z,4.50
2024-04-05T08:31:42.624Z,8.30
2024-04-05T08:34:14.003Z,7.70
2024-04-05T08:36:50.737Z,5.80
2024-04-05T08:39:22.812Z,6.80
2024-04-05T08:41:57.081Z,6.80
2024-04-05T08:44:29.525Z,9.40
2024-04-05T08:47:00.791Z,5.60
2024-04-05T08:49:36.042Z,7.60
2024-04-05T08:52:08.094Z,4.20
2024-04-05T08:54:39.529Z,7.70
2024-04-05T08:57:11.994Z,8.20
2024-04-05T08:59:50.430Z,5.10
2024-04-05T09:02:24.446Z,6.90
2024-04-05T09:04:55.935Z,4.90
2024-04-05T09:07:27.709Z,10.70
2024-04-05T09:09:59.406Z,9.10
2024-04-05T09:12:34.357Z,20.40
2024-04-05T09:15:09.420Z,39.00
2024-04-05T09:17:48.698Z,18.90
2024-04-05T09:20:25.437Z,16.70
2024-04-05T09:23:03.608Z,9.80
2024-04-05T09:25:38.570Z,14.10
2024-04-05T09:28:14.398Z,7.60
2024-04-05T09:30:47.458Z,5.70
2024-04-05T09:33:23.262Z,5.30
2024-04-05T09:35:57.731Z,9.30
2024-04-05T09:38:31.090Z,24.70
2024-04-05T09:41:03.119Z,32.20
2024-04-05T09:43:52.148Z,19.70
2024-04-05T09:46:28.664Z,7.80
2024-04-05T09:49:00.469Z,9.40
2024-04-05T09:51:45.104Z,9.70
2024-04-05T09:54:18.357Z,8.00
2024-04-05T09:56:51.288Z,6.70
2024-04-05T09:59:26.338Z,7.70
2024-04-05T10:01:58.976Z,4.40
2024-04-05T10:04:30.686Z,9.60
2024-04-05T10:07:10.879Z,12.60
2024-04-05T10:09:44.153Z,11.60
2024-04-05T10:12:18.299Z,9.00
2024-04-05T10:14:58.127Z,5.90
2024-04-05T10:17:31.089Z,7.10
2024-04-05T10:20:12.554Z,5.60
2024-04-05T10:22:45.064Z,4.30
2024-04-05T10:25:17.102Z,4.70
2024-04-05T10:27:53.600Z,5.10
2024-04-05T10:30:25.189Z,4.10
2024-04-05T10:33:02.362Z,5.50
2024-04-05T10:35:33.631Z,7.50
2024-04-05T10:38:19.103Z,4.60
2024-04-05T10:41:01.711Z,6.30
2024-04-05T10:43:33.000Z,6.60
2024-04-05T10:46:04.590Z,5.20
2024-04-05T10:48:36.194Z,5.50
2024-04-05T10:51:09.613Z,4.70
2024-04-05T10:53:41.734Z,5.60
2024-04-05T10:56:13.100Z,3.70
2024-04-05T10:58:45.124Z,7.40
2024-04-05T11:01:18.299Z,5.50
2024-04-05T11:03:49.556Z,4.00
2024-04-05T11:06:20.745Z,4.10
2024-04-05T11:08:56.227Z,4.40
2024-04-05T11:11:28.276Z,4.80
2024-04-05T11:14:06.282Z,2.60
2024-04-05T11:16:38.535Z,3.50
2024-04-05T11:19:09.444Z,6.10
2024-04-05T11:21:40.868Z,5.30
2024-04-05T11:24:20.070Z,3.70
2024-04-05T11:26:53.739Z,2.90
2024-04-05T11:29:25.000Z,2.50
2024-04-05T11:31:59.483Z,2.40
2024-04-05T11:34:30.623Z,4.80
2024-04-05T11:37:02.225Z,2.90
2024-04-05T11:39:33.357Z,2.30
2024-04-05T11:42:04.814Z,5.20
2024-04-05T11:44:35.934Z,3.90
2024-04-05T11:47:07.347Z,3.70
2024-04-05T11:49:38.462Z,5.30
2024-04-05T11:52:10.658Z,2.80
2024-04-05T11:54:41.952Z,2.60
2024-04-05T11:57:15.647Z,4.00
2024-04-05T11:59:46.702Z,5.80
2024-04-05T12:02:17.768Z,2.60
2024-04-05T12:04:50.109Z,3.10
2024-04-05T12:07:21.079Z,5.50
2024-04-05T12:09:52.184Z,6.00
2024-04-05T12:12:23.553Z,3.60
2024-04-05T12:14:54.531Z,5.50
2024-04-05T12:17:25.768Z,2.80
2024-04-05T12:19:56.725Z,2.90
2024-04-05T12:22:27.660Z,4.00
2024-04-05T12:24:58.787Z,3.60
2024-04-05T12:27:29.888Z,4.10
2024-04-05T12:30:00.794Z,3.10
2024-04-05T12:32:31.859Z,4.60
2024-04-05T12:35:03.350Z,2.60
2024-04-05T12:37:38.920Z,4.10
2024-04-05T12:40:18.652Z,3.40
2024-04-05T12:42:49.550Z,5.40
2024-04-05T12:45:20.519Z,3.90
2024-04-05T12:47:52.039Z,4.10
2024-04-05T12:50:23.015Z,4.40
2024-04-05T12:52:54.291Z,5.10
2024-04-05T12:55:25.741Z,3.50
2024-04-05T12:57:57.048Z,7.70
2024-04-05T13:00:28.537Z,3.40
2024-04-05T13:02:59.807Z,2.20
2024-04-05T13:05:31.203Z,2.50
2024-04-05T13:08:02.475Z,4.00
2024-04-05T13:10:33.652Z,14.50
2024-04-05T13:13:05.830Z,8.20
2024-04-05T13:15:37.804Z,5.10
2024-04-05T13:18:09.807Z,4.30
2024-04-05T13:20:41.139Z,7.90
2024-04-05T13:23:12.281Z,5.10
2024-04-05T13:25:44.273Z,2.90
2024-04-05T13:28:15.883Z,4.20
2024-04-05T13:30:47.107Z,4.90
2024-04-05T13:33:18.724Z,4.60
2024-04-05T13:35:50.436Z,2.60
2024-04-05T13:38:23.945Z,5.10
2024-04-05T13:40:55.381Z,3.10
2024-04-05T13:43:26.558Z,2.10
2024-04-05T13:46:10.440Z,3.60
2024-04-05T13:48:44.456Z,3.00
2024-04-05T13:51:17.487Z,2.80
2024-04-05T13:53:48.739Z,2.70
2024-04-05T13:56:21.624Z,2.40
2024-04-05T13:58:53.672Z,2.00
2024-04-05T14:01:25.364Z,2.80
2024-04-05T14:03:56.962Z,2.90
2024-04-05T14:06:28.043Z,1.80
2024-04-05T14:08:59.320Z,6.40
2024-04-05T14:11:30.534Z,3.30
2024-04-05T14:14:02.664Z,3.90
2024-04-05T14:16:34.187Z,3.90
2024-04-05T14:19:06.939Z,1.70
2024-04-05T14:21:38.918Z,6.60
2024-04-05T14:24:10.696Z,2.20
2024-04-05T14:26:42.840Z,4.70
2024-04-05T14:29:14.089Z,3.00
2024-04-05T14:31:45.542Z,2.30
2024-04-05T14:34:17.238Z,4.50
2024-04-05T14:36:49.631Z,3.40
2024-04-05T14:39:23.651Z,5.80
2024-04-05T14:41:55.083Z,3.80
2024-04-05T14:44:27.321Z,3.80
2024-04-05T14:46:58.610Z,5.00
2024-04-05T14:49:30.745Z,3.50
2024-04-05T14:52:02.492Z,22.00
2024-04-05T14:54:33.889Z,55.90
2024-04-05T14:57:06.107Z,11.10
2024-04-05T14:59:37.410Z,7.80
2024-04-05T15:02:09.106Z,5.60
2024-04-05T15:04:40.551Z,8.40
2024-04-05T15:07:11.568Z,11.90
2024-04-05T15:09:43.408Z,12.60
2024-04-05T15:12:15.059Z,6.50
2024-04-05T15:14:48.089Z,7.00
2024-04-05T15:17:19.525Z,3.20
2024-04-05T15:19:50.621Z,4.30
2024-04-05T15:22:21.655Z,2.70
2024-04-05T15:24:53.404Z,2.70
2024-04-05T15:27:24.431Z,4.50
2024-04-05T15:29:55.407Z,3.60
2024-04-05T15:32:26.334Z,3.10
2024-04-05T15:34:57.197Z,5.00
2024-04-05T15:37:28.140Z,13.10
2024-04-05T15:39:59.301Z,12.60
2024-04-05T15:42:31.809Z,9.70
2024-04-05T15:45:03.257Z,22.10
2024-04-05T15:47:34.286Z,15.40
2024-04-05T15:50:05.984Z,13.20
2024-04-05T15:52:36.997Z,32.40
2024-04-05T15:55:08.503Z,9.40
2024-04-05T15:57:39.644Z,6.90
2024-04-05T16:00:13.741Z,3.00
2024-04-05T16:02:44.965Z,5.30
2024-04-05T16:05:18.220Z,6.00
2024-04-05T16:07:49.590Z,3.70
2024-04-05T16:10:20.647Z,25.10
2024-04-05T16:12:51.999Z,9.90
2024-04-05T16:15:23.381Z,6.20
2024-04-05T16:17:55.524Z,6.10
2024-04-05T16:20:29.162Z,4.80
2024-04-05T16:23:00.354Z,17.10
2024-04-05T16:25:32.023Z,8.00
2024-04-05T16:28:05.974Z,6.00
2024-04-05T16:30:40.792Z,5.70
2024-04-05T16:33:12.604Z,6.40
2024-04-05T16:35:43.765Z,5.20
2024-04-05T16:38:14.893Z,5.70
2024-04-05T16:40:49.721Z,5.00
2024-04-05T16:43:20.630Z,7.40
2024-04-05T16:45:51.644Z,8.40
2024-04-05T16:48:23.216Z,8.10
2024-04-05T16:50:54.361Z,5.20
2024-04-05T16:53:25.234Z,3.00
2024-04-05T16:55:56.377Z,5.90
2024-04-05T16:58:28.177Z,3.80
2024-04-05T17:00:59.296Z,4.00
2024-04-05T17:03:30.578Z,2.90
2024-04-05T17:06:10.016Z,5.30
2024-04-05T17:08:41.896Z,3.30
2024-04-05T17:11:14.773Z,3.60
2024-04-05T17:13:49.345Z,3.00
2024-04-05T17:16:20.702Z,5.40
2024-04-05T17:18:52.004Z,3.90
2024-04-05T17:21:23.259Z,5.00
2024-04-05T17:23:54.616Z,49.80
2024-04-05T17:26:26.658Z,34.40
2024-04-05T17:28:57.995Z,14.70
2024-04-05T17:31:29.825Z,14.10
2024-04-05T17:34:01.390Z,34.30
2024-04-05T17:36:33.072Z,10.30
2024-04-05T17:39:04.549Z,11.60
2024-04-05T17:41:36.020Z,11.70
2024-04-05T17:44:08.517Z,17.00
2024-04-05T17:46:40.322Z,18.40
2024-04-05T17:49:11.788Z,13.90
2024-04-05T17:51:43.021Z,7.70
2024-04-05T17:54:13.998Z,9.40
2024-04-05T17:56:45.073Z,3.40
2024-04-05T17:59:16.490Z,6.90
2024-04-05T18:01:49.998Z,2.50
2024-04-05T18:04:24.712Z,2.80
2024-04-05T18:06:55.886Z,2.30
2024-04-05T18:09:27.522Z,8.20
2024-04-05T18:11:59.983Z,3.90
2024-04-05T18:14:31.924Z,3.00
2024-04-05T18:17:03.349Z,2.50
2024-04-05T18:19:34.924Z,6.10
2024-04-05T18:22:06.765Z,2.00
2024-04-05T18:24:37.993Z,3.10
2024-04-05T18:27:09.545Z,4.80
2024-04-05T18:29:41.977Z,108.10
2024-04-05T18:32:14.428Z,120.60
2024-04-05T18:34:49.388Z,103.10
2024-04-05T18:37:20.561Z,142.40
2024-04-05T18:39:51.704Z,145.80
2024-04-05T18:42:25.774Z,130.60
2024-04-05T18:44:57.346Z,89.00
2024-04-05T18:47:28.430Z,67.20
2024-04-05T18:49:59.335Z,51.60
2024-04-05T18:52:30.376Z,61.80
2024-04-05T18:55:01.707Z,49.50
2024-04-05T18:57:34.026Z,25.10
2024-04-05T19:00:14.551Z,17.50
2024-04-05T19:02:45.819Z,13.50
2024-04-05T19:05:18.457Z,11.20
2024-04-05T19:07:49.863Z,5.70
2024-04-05T19:10:21.913Z,5.10
2024-04-05T19:12:53.333Z,4.10
2024-04-05T19:15:26.036Z,4.20
2024-04-05T19:18:00.500Z,4.10
2024-04-05T19:20:31.839Z,3.20
2024-04-05T19:23:03.034Z,3.10
2024-04-05T19:25:34.754Z,6.00
2024-04-05T19:28:06.869Z,2.50
2024-04-05T19:30:41.396Z,3.10
2024-04-05T19:33:16.655Z,3.90
2024-04-05T19:35:47.960Z,5.00
2024-04-05T19:38:20.283Z,2.40
2024-04-05T19:40:52.007Z,3.20
2024-04-05T19:43:25.797Z,7.80
2024-04-05T19:45:56.986Z,2.80
2024-04-05T19:48:28.538Z,2.80
2024-04-05T19:50:59.898Z,5.60
2024-04-05T19:53:31.147Z,4.30
2024-04-05T19:56:03.973Z,2.20
2024-04-05T19:58:35.829Z,3.80
2024-04-05T20:01:07.427Z,3.00
2024-04-05T20:03:39.910Z,3.40
2024-04-05T20:06:11.205Z,2.40
2024-04-05T20:08:42.404Z,3.80
2024-04-05T20:11:15.379Z,3.90
2024-04-05T20:13:46.523Z,3.60
2024-04-05T20:16:18.099Z,2.70
2024-04-05T20:18:49.434Z,3.50
2024-04-05T20:21:20.619Z,2.20
2024-04-05T20:24:08.819Z,3.90
2024-04-05T20:26:43.613Z,2.70
2024-04-05T20:29:29.106Z,2.50
2024-04-05T20:32:22.954Z,2.80
2024-04-05T20:34:55.323Z,12.50
2024-04-05T20:37:26.703Z,14.10
2024-04-05T20:39:58.455Z,9.70
2024-04-05T20:42:29.760Z,4.40
2024-04-05T20:45:01.367Z,3.80
2024-04-05T20:47:36.817Z,3.60
2024-04-05T20:50:11.010Z,5.20
2024-04-05T20:52:43.207Z,6.50
2024-04-05T20:55:15.953Z,4.30
2024-04-05T20:57:47.521Z,3.70
2024-04-05T21:00:19.817Z,5.30
2024-04-05T21:02:54.218Z,2.50
2024-04-05T21:05:25.674Z,2.80
2024-04-05T21:07:56.980Z,3.60
2024-04-05T21:10:28.821Z,3.50
2024-04-05T21:13:00.178Z,2.90
2024-04-05T21:15:31.900Z,3.80
2024-04-05T21:18:03.197Z,2.20
2024-04-05T21:20:34.632Z,2.00
2024-04-05T21:23:06.998Z,1.80
2024-04-05T21:25:39.136Z,2.60
2024-04-05T21:28:11.336Z,2.90
2024-04-05T21:30:43.948Z,5.20
2024-04-05T21:33:17.072Z,3.00
2024-04-05T21:35:49.974Z,18.60
2024-04-05T21:38:22.367Z,6.30
2024-04-05T21:40:54.576Z,4.30
2024-04-05T21:43:26.957Z,9.90
2024-04-05T21:45:58.496Z,11.50
2024-04-05T21:48:29.606Z,11.20
2024-04-05T21:53:38.050Z,6.90
2024-04-05T21:56:09.440Z,3.60
2024-04-05T21:58:40.515Z,4.10
2024-04-05T22:01:12.234Z,2.40
2024-04-05T22:03:43.489Z,2.60
2024-04-05T22:06:14.779Z,4.10
2024-04-05T22:08:46.048Z,3.70
2024-04-05T22:11:17.466Z,5.20
2024-04-05T22:13:48.586Z,4.00
2024-04-05T22:16:21.438Z,4.20
2024-04-05T22:18:53.579Z,2.30
2024-04-05T22:21:25.311Z,2.90
2024-04-05T22:23:57.697Z,1.60
2024-04-05T22:26:28.730Z,4.80
2024-04-05T22:28:59.779Z,1.90
2024-04-05T22:31:31.416Z,4.50
2024-04-05T22:34:02.984Z,4.00
2024-04-05T22:36:35.047Z,5.40
2024-04-05T22:39:08.795Z,2.80
2024-04-05T22:41:41.551Z,3.50
2024-04-05T22:44:12.570Z,2.60
2024-04-05T22:46:46.514Z,3.20
2024-04-05T22:49:19.391Z,2.10
2024-04-05T22:51:50.674Z,4.30
2024-04-05T22:54:22.816Z,3.00
2024-04-05T22:56:54.077Z,3.20
2024-04-05T22:59:25.708Z,2.10
2024-04-05T23:01:57.166Z,2.60
2024-04-05T23:04:28.681Z,3.40
2024-04-05T23:07:00.194Z,2.40
2024-04-05T23:09:31.398Z,2.20
2024-04-05T23:12:02.739Z,1.90
2024-04-05T23:14:34.204Z,4.60
2024-04-05T23:17:05.880Z,1.90
2024-04-05T23:19:37.705Z,2.50
2024-04-05T23:22:09.508Z,2.50
2024-04-05T23:24:40.642Z,3.70
2024-04-05T23:27:12.025Z,2.50
2024-04-05T23:29:45.513Z,2.50
2024-04-05T23:32:18.183Z,1.90
2024-04-05T23:34:49.281Z,4.30
2024-04-05T23:37:20.729Z,2.60
2024-04-05T23:39:52.198Z,3.50
2024-04-05T23:42:23.421Z,4.70
2024-04-05T23:44:54.820Z,2.70
2024-04-05T23:47:26.245Z,2.40
2024-04-05T23:49:57.937Z,2.50
2024-04-05T23:52:29.410Z,2.60
2024-04-05T23:55:00.498Z,2.10
2024-04-05T23:57:31.963Z,3.60
